sensor_id;sensor_type;location;lat;lon;timestamp;pressure;altitude;pressure_sealevel;temperature;humidity
55070;BME280;40967;52.070;8.596;2023-02-17T00:01:32;100848.88;;;8.35;100.00
55070;BME280;40967;52.070;8.596;2023-02-17T00:03:58;100840.69;;;8.30;100.00
55070;BME280;40967;52.070;8.596;2023-02-17T00:06:26;100833.94;;;8.33;100.00
55070;BME280;40967;52.070;8.596;2023-02-17T00:08:52;100834.28;;;8.36;100.00
55070;BME280;40967;52.070;8.596;2023-02-17T00:11:19;100823.47;;;8.36;100.00
55070;BME280;40967;52.070;8.596;2023-02-17T00:13:45;100824.59;;;8.40;100.00
55070;BME280;40967;52.070;8.596;2023-02-17T00:16:20;100819.44;;;8.39;100.00
55070;BME280;40967;52.070;8.596;2023-02-17T00:18:46;100810.00;;;8.41;100.00
55070;BME280;40967;52.070;8.596;2023-02-17T00:21:17;100810.25;;;8.40;100.00
55070;BME280;40967;52.070;8.596;2023-02-17T00:23:44;100810.00;;;8.41;100.00
55070;BME280;40967;52.070;8.596;2023-02-17T00:26:10;100804.59;;;8.41;100.00
55070;BME280;40967;52.070;8.596;2023-02-17T00:28:35;100794.88;;;8.40;100.00
55070;BME280;40967;52.070;8.596;2023-02-17T00:31:09;100799.53;;;8.45;100.00
55070;BME280;40967;52.070;8.596;2023-02-17T00:33:36;100803.56;;;8.42;100.00
55070;BME280;40967;52.070;8.596;2023-02-17T00:36:06;100807.63;;;8.45;100.00
55070;BME280;40967;52.070;8.596;2023-02-17T00:38:33;100796.50;;;8.41;100.00
55070;BME280;40967;52.070;8.596;2023-02-17T00:40:58;100793.31;;;8.44;100.00
55070;BME280;40967;52.070;8.596;2023-02-17T00:43:24;100789.28;;;8.47;100.00
55070;BME280;40967;52.070;8.596;2023-02-17T00:45:50;100790.03;;;8.42;100.00
55070;BME280;40967;52.070;8.596;2023-02-17T00:48:16;100776.53;;;8.42;100.00
55070;BME280;40967;52.070;8.596;2023-02-17T00:50:41;100799.91;;;8.53;100.00
55070;BME280;40967;52.070;8.596;2023-02-17T00:53:07;100794.50;;;8.53;100.00
55070;BME280;40967;52.070;8.596;2023-02-17T00:55:32;100793.44;;;8.54;100.00
55070;BME280;40967;52.070;8.596;2023-02-17T00:57:58;100794.28;;;8.55;100.00
55070;BME280;40967;52.070;8.596;2023-02-17T01:00:23;100797.78;;;8.55;100.00
55070;BME280;40967;52.070;8.596;2023-02-17T01:02:49;100794.56;;;8.58;100.00
55070;BME280;40967;52.070;8.596;2023-02-17T01:05:14;100792.69;;;8.59;100.00
55070;BME280;40967;52.070;8.596;2023-02-17T01:07:39;100790.56;;;8.61;100.00
55070;BME280;40967;52.070;8.596;2023-02-17T01:10:06;100794.66;;;8.63;100.00
55070;BME280;40967;52.070;8.596;2023-02-17T01:12:32;100789.72;;;8.60;100.00
55070;BME280;40967;52.070;8.596;2023-02-17T01:14:58;100795.19;;;8.65;100.00
55070;BME280;40967;52.070;8.596;2023-02-17T01:17:23;100787.34;;;8.64;100.00
55070;BME280;40967;52.070;8.596;2023-02-17T01:19:48;100791.19;;;8.68;100.00
55070;BME280;40967;52.070;8.596;2023-02-17T01:22:15;100790.38;;;8.67;100.00
55070;BME280;40967;52.070;8.596;2023-02-17T01:24:40;100779.22;;;8.64;100.00
55070;BME280;40967;52.070;8.596;2023-02-17T01:27:05;100780.56;;;8.61;100.00
55070;BME280;40967;52.070;8.596;2023-02-17T01:29:31;100790.69;;;8.71;100.00
55070;BME280;40967;52.070;8.596;2023-02-17T01:31:56;100772.53;;;8.66;100.00
55070;BME280;40967;52.070;8.596;2023-02-17T01:34:22;100778.81;;;8.72;100.00
55070;BME280;40967;52.070;8.596;2023-02-17T01:36:47;100775.59;;;8.75;100.00
55070;BME280;40967;52.070;8.596;2023-02-17T01:39:14;100763.00;;;8.64;100.00
55070;BME280;40967;52.070;8.596;2023-02-17T01:41:42;100767.16;;;8.71;100.00
55070;BME280;40967;52.070;8.596;2023-02-17T01:44:12;100762.34;;;8.73;100.00
55070;BME280;40967;52.070;8.596;2023-02-17T01:46:39;100752.25;;;8.69;100.00
55070;BME280;40967;52.070;8.596;2023-02-17T01:51:39;100736.34;;;8.72;100.00
55070;BME280;40967;52.070;8.596;2023-02-17T01:54:13;100748.03;;;8.78;100.00
55070;BME280;40967;52.070;8.596;2023-02-17T01:56:41;100743.19;;;8.80;100.00
55070;BME280;40967;52.070;8.596;2023-02-17T01:59:16;100730.38;;;8.70;100.00
55070;BME280;40967;52.070;8.596;2023-02-17T02:01:43;100723.94;;;8.76;100.00
55070;BME280;40967;52.070;8.596;2023-02-17T02:04:10;100736.41;;;8.77;100.00
55070;BME280;40967;52.070;8.596;2023-02-17T02:06:37;100726.97;;;8.80;100.00
55070;BME280;40967;52.070;8.596;2023-02-17T02:09:15;100726.19;;;8.84;100.00
55070;BME280;40967;52.070;8.596;2023-02-17T02:11:42;100715.63;;;8.83;100.00
55070;BME280;40967;52.070;8.596;2023-02-17T02:14:08;100714.84;;;8.82;100.00
55070;BME280;40967;52.070;8.596;2023-02-17T02:24:58;100713.75;;;8.83;100.00
55070;BME280;40967;52.070;8.596;2023-02-17T02:28:00;100680.16;;;8.79;100.00
55070;BME280;40967;52.070;8.596;2023-02-17T02:33:02;100710.78;;;8.85;100.00
55070;BME280;40967;52.070;8.596;2023-02-17T02:38:42;100708.66;;;8.87;100.00
55070;BME280;40967;52.070;8.596;2023-02-17T02:41:22;100698.66;;;8.87;100.00
55070;BME280;40967;52.070;8.596;2023-02-17T02:43:50;100699.66;;;8.81;100.00
55070;BME280;40967;52.070;8.596;2023-02-17T02:46:16;100700.28;;;8.88;100.00
55070;BME280;40967;52.070;8.596;2023-02-17T02:48:42;100682.91;;;8.84;100.00
55070;BME280;40967;52.070;8.596;2023-02-17T03:10:03;100692.25;;;8.98;100.00
55070;BME280;40967;52.070;8.596;2023-02-17T03:12:29;100677.09;;;8.97;100.00
55070;BME280;40967;52.070;8.596;2023-02-17T03:15:08;100672.53;;;8.98;100.00
55070;BME280;40967;52.070;8.596;2023-02-17T03:17:36;100663.31;;;8.99;100.00
55070;BME280;40967;52.070;8.596;2023-02-17T03:20:03;100646.50;;;8.97;100.00
55070;BME280;40967;52.070;8.596;2023-02-17T03:22:34;100643.84;;;9.02;100.00
55070;BME280;40967;52.070;8.596;2023-02-17T03:25:00;100640.63;;;9.00;100.00
55070;BME280;40967;52.070;8.596;2023-02-17T03:27:26;100629.78;;;9.00;100.00
55070;BME280;40967;52.070;8.596;2023-02-17T03:29:52;100619.25;;;9.03;100.00
55070;BME280;40967;52.070;8.596;2023-02-17T03:32:18;100608.94;;;9.00;100.00
55070;BME280;40967;52.070;8.596;2023-02-17T03:34:43;100622.78;;;9.04;100.00
55070;BME280;40967;52.070;8.596;2023-02-17T03:37:09;100631.72;;;9.04;100.00
55070;BME280;40967;52.070;8.596;2023-02-17T03:39:34;100636.59;;;9.07;100.00
55070;BME280;40967;52.070;8.596;2023-02-17T03:41:59;100618.13;;;8.99;100.00
55070;BME280;40967;52.070;8.596;2023-02-17T03:44:25;100632.84;;;9.08;100.00
55070;BME280;40967;52.070;8.596;2023-02-17T03:46:50;100626.88;;;9.06;100.00
55070;BME280;40967;52.070;8.596;2023-02-17T03:49:16;100635.56;;;9.08;100.00
55070;BME280;40967;52.070;8.596;2023-02-17T03:51:41;100623.63;;;9.09;100.00
55070;BME280;40967;52.070;8.596;2023-02-17T03:54:06;100619.31;;;9.08;100.00
55070;BME280;40967;52.070;8.596;2023-02-17T03:56:32;100614.69;;;9.09;100.00
55070;BME280;40967;52.070;8.596;2023-02-17T03:58:57;100622.06;;;9.13;100.00
55070;BME280;40967;52.070;8.596;2023-02-17T04:01:23;100619.09;;;9.15;100.00
55070;BME280;40967;52.070;8.596;2023-02-17T04:03:48;100607.69;;;9.13;100.00
55070;BME280;40967;52.070;8.596;2023-02-17T04:06:14;100629.91;;;9.15;100.00
55070;BME280;40967;52.070;8.596;2023-02-17T04:08:39;100617.44;;;9.14;100.00
55070;BME280;40967;52.070;8.596;2023-02-17T04:11:06;100622.06;;;9.13;100.00
55070;BME280;40967;52.070;8.596;2023-02-17T04:13:32;100614.81;;;9.19;100.00
55070;BME280;40967;52.070;8.596;2023-02-17T04:15:58;100618.88;;;9.22;100.00
55070;BME280;40967;52.070;8.596;2023-02-17T04:18:26;100612.09;;;9.19;100.00
55070;BME280;40967;52.070;8.596;2023-02-17T04:20:52;100619.69;;;9.22;100.00
55070;BME280;40967;52.070;8.596;2023-02-17T04:23:18;100626.69;;;9.18;100.00
55070;BME280;40967;52.070;8.596;2023-02-17T04:25:44;100633.75;;;9.19;100.00
55070;BME280;40967;52.070;8.596;2023-02-17T04:28:11;100647.34;;;9.24;100.00
55070;BME280;40967;52.070;8.596;2023-02-17T04:30:43;100646.78;;;9.22;100.00
55070;BME280;40967;52.070;8.596;2023-02-17T04:33:09;100635.16;;;9.27;100.00
55070;BME280;40967;52.070;8.596;2023-02-17T04:35:35;100630.81;;;9.26;100.00
55070;BME280;40967;52.070;8.596;2023-02-17T04:38:00;100620.22;;;9.19;100.00
55070;BME280;40967;52.070;8.596;2023-02-17T04:40:26;100610.19;;;9.19;100.00
55070;BME280;40967;52.070;8.596;2023-02-17T04:42:51;100605.00;;;9.13;100.00
55070;BME280;40967;52.070;8.596;2023-02-17T04:45:17;100626.19;;;9.26;100.00
55070;BME280;40967;52.070;8.596;2023-02-17T04:47:43;100617.28;;;9.26;100.00
55070;BME280;40967;52.070;8.596;2023-02-17T04:50:10;100616.25;;;9.32;100.00
55070;BME280;40967;52.070;8.596;2023-02-17T04:52:36;100617.88;;;9.33;100.00
55070;BME280;40967;52.070;8.596;2023-02-17T04:55:02;100618.94;;;9.32;100.00
55070;BME280;40967;52.070;8.596;2023-02-17T04:57:28;100608.94;;;9.32;100.00
55070;BME280;40967;52.070;8.596;2023-02-17T04:59:53;100601.09;;;9.31;100.00
55070;BME280;40967;52.070;8.596;2023-02-17T05:02:19;100589.44;;;9.30;100.00
55070;BME280;40967;52.070;8.596;2023-02-17T05:04:44;100582.69;;;9.33;100.00
55070;BME280;40967;52.070;8.596;2023-02-17T05:07:09;100569.91;;;9.28;100.00
55070;BME280;40967;52.070;8.596;2023-02-17T05:09:35;100574.56;;;9.33;100.00
55070;BME280;40967;52.070;8.596;2023-02-17T05:12:00;100573.22;;;9.35;100.00
55070;BME280;40967;52.070;8.596;2023-02-17T05:14:27;100572.13;;;9.31;100.00
55070;BME280;40967;52.070;8.596;2023-02-17T05:16:53;100561.03;;;9.33;100.00
55070;BME280;40967;52.070;8.596;2023-02-17T05:19:18;100556.69;;;9.37;100.00
55070;BME280;40967;52.070;8.596;2023-02-17T05:21:44;100554.56;;;9.39;100.00
55070;BME280;40967;52.070;8.596;2023-02-17T05:24:09;100566.75;;;9.36;100.00
55070;BME280;40967;52.070;8.596;2023-02-17T05:26:34;100577.88;;;9.40;100.00
55070;BME280;40967;52.070;8.596;2023-02-17T05:29:00;100560.75;;;9.34;100.00
55070;BME280;40967;52.070;8.596;2023-02-17T05:31:25;100559.09;;;9.28;100.00
55070;BME280;40967;52.070;8.596;2023-02-17T05:33:54;100571.84;;;9.33;100.00
55070;BME280;40967;52.070;8.596;2023-02-17T05:36:19;100565.88;;;9.31;100.00
55070;BME280;40967;52.070;8.596;2023-02-17T05:38:44;100565.91;;;9.36;100.00
55070;BME280;40967;52.070;8.596;2023-02-17T05:41:16;100551.81;;;9.34;100.00
55070;BME280;40967;52.070;8.596;2023-02-17T05:43:41;100573.25;;;9.40;100.00
55070;BME280;40967;52.070;8.596;2023-02-17T05:46:07;100582.75;;;9.43;100.00
55070;BME280;40967;52.070;8.596;2023-02-17T05:48:32;100558.38;;;9.43;100.00
55070;BME280;40967;52.070;8.596;2023-02-17T05:50:58;100572.47;;;9.45;100.00
55070;BME280;40967;52.070;8.596;2023-02-17T05:53:24;100549.69;;;9.41;100.00
55070;BME280;40967;52.070;8.596;2023-02-17T05:55:49;100530.75;;;9.41;100.00
55070;BME280;40967;52.070;8.596;2023-02-17T05:58:15;100541.31;;;9.42;100.00
55070;BME280;40967;52.070;8.596;2023-02-17T06:00:40;100552.44;;;9.46;100.00
55070;BME280;40967;52.070;8.596;2023-02-17T06:03:06;100537.25;;;9.40;100.00
55070;BME280;40967;52.070;8.596;2023-02-17T06:05:31;100546.47;;;9.44;100.00
55070;BME280;40967;52.070;8.596;2023-02-17T06:07:57;100547.81;;;9.41;100.00
55070;BME280;40967;52.070;8.596;2023-02-17T06:10:22;100550.00;;;9.44;100.00
55070;BME280;40967;52.070;8.596;2023-02-17T06:12:48;100530.22;;;9.44;100.00
55070;BME280;40967;52.070;8.596;2023-02-17T06:15:13;100533.47;;;9.46;100.00
55070;BME280;40967;52.070;8.596;2023-02-17T06:17:39;100542.44;;;9.46;100.00
55070;BME280;40967;52.070;8.596;2023-02-17T06:20:05;100529.94;;;9.45;100.00
55070;BME280;40967;52.070;8.596;2023-02-17T06:22:30;100525.09;;;9.47;100.00
55070;BME280;40967;52.070;8.596;2023-02-17T06:24:56;100504.78;;;9.45;100.00
55070;BME280;40967;52.070;8.596;2023-02-17T06:27:21;100517.81;;;9.53;100.00
55070;BME280;40967;52.070;8.596;2023-02-17T06:29:46;100521.09;;;9.55;100.00
55070;BME280;40967;52.070;8.596;2023-02-17T06:32:12;100525.94;;;9.53;100.00
55070;BME280;40967;52.070;8.596;2023-02-17T06:34:37;100522.97;;;9.54;100.00
55070;BME280;40967;52.070;8.596;2023-02-17T06:37:03;100540.00;;;9.50;100.00
55070;BME280;40967;52.070;8.596;2023-02-17T06:39:28;100535.91;;;9.47;100.00
55070;BME280;40967;52.070;8.596;2023-02-17T06:41:54;100557.13;;;9.55;100.00
55070;BME280;40967;52.070;8.596;2023-02-17T06:44:19;100546.25;;;9.50;100.00
55070;BME280;40967;52.070;8.596;2023-02-17T06:46:45;100557.88;;;9.51;100.00
55070;BME280;40967;52.070;8.596;2023-02-17T06:49:12;100542.75;;;9.55;100.00
55070;BME280;40967;52.070;8.596;2023-02-17T06:51:37;100557.41;;;9.59;100.00
55070;BME280;40967;52.070;8.596;2023-02-17T06:54:03;100553.03;;;9.53;100.00
55070;BME280;40967;52.070;8.596;2023-02-17T06:56:29;100550.06;;;9.59;100.00
55070;BME280;40967;52.070;8.596;2023-02-17T06:58:54;100549.28;;;9.59;100.00
55070;BME280;40967;52.070;8.596;2023-02-17T07:01:24;100543.03;;;9.58;100.00
55070;BME280;40967;52.070;8.596;2023-02-17T07:03:53;100535.19;;;9.57;100.00
55070;BME280;40967;52.070;8.596;2023-02-17T07:06:19;100531.66;;;9.56;100.00
55070;BME280;40967;52.070;8.596;2023-02-17T07:08:45;100550.38;;;9.63;100.00
55070;BME280;40967;52.070;8.596;2023-02-17T07:11:12;100527.63;;;9.64;100.00
55070;BME280;40967;52.070;8.596;2023-02-17T07:13:39;100556.34;;;9.65;100.00
55070;BME280;40967;52.070;8.596;2023-02-17T07:16:06;100537.91;;;9.62;100.00
55070;BME280;40967;52.070;8.596;2023-02-17T07:18:31;100543.34;;;9.67;100.00
55070;BME280;40967;52.070;8.596;2023-02-17T07:20:57;100542.25;;;9.68;100.00
55070;BME280;40967;52.070;8.596;2023-02-17T07:23:22;100536.84;;;9.68;100.00
55070;BME280;40967;52.070;8.596;2023-02-17T07:25:48;100547.94;;;9.66;100.00
55070;BME280;40967;52.070;8.596;2023-02-17T07:28:13;100540.66;;;9.72;100.00
55070;BME280;40967;52.070;8.596;2023-02-17T07:30:40;100548.25;;;9.75;100.00
55070;BME280;40967;52.070;8.596;2023-02-17T07:33:06;100534.13;;;9.68;100.00
55070;BME280;40967;52.070;8.596;2023-02-17T07:35:32;100536.34;;;9.71;100.00
55070;BME280;40967;52.070;8.596;2023-02-17T07:38:00;100509.81;;;9.73;100.00
55070;BME280;40967;52.070;8.596;2023-02-17T07:40:26;100483.19;;;9.65;100.00
55070;BME280;40967;52.070;8.596;2023-02-17T07:42:52;100503.03;;;9.80;100.00
55070;BME280;40967;52.070;8.596;2023-02-17T07:45:19;100509.53;;;9.74;100.00
55070;BME280;40967;52.070;8.596;2023-02-17T07:47:45;100509.81;;;9.78;100.00
55070;BME280;40967;52.070;8.596;2023-02-17T07:50:10;100513.31;;;9.73;100.00
55070;BME280;40967;52.070;8.596;2023-02-17T07:52:36;100517.41;;;9.76;100.00
55070;BME280;40967;52.070;8.596;2023-02-17T07:55:02;100524.44;;;9.77;100.00
55070;BME280;40967;52.070;8.596;2023-02-17T07:57:28;100512.75;;;9.71;100.00
55070;BME280;40967;52.070;8.596;2023-02-17T07:59:54;100501.69;;;9.73;100.00
55070;BME280;40967;52.070;8.596;2023-02-17T08:02:19;100521.72;;;9.77;100.00
55070;BME280;40967;52.070;8.596;2023-02-17T08:04:46;100505.75;;;9.75;100.00
55070;BME280;40967;52.070;8.596;2023-02-17T08:07:12;100496.25;;;9.73;100.00
55070;BME280;40967;52.070;8.596;2023-02-17T08:09:38;100517.41;;;9.81;100.00
55070;BME280;40967;52.070;8.596;2023-02-17T08:12:22;100508.19;;;9.77;100.00
55070;BME280;40967;52.070;8.596;2023-02-17T08:15:10;100506.28;;;9.77;100.00
55070;BME280;40967;52.070;8.596;2023-02-17T08:17:35;100510.13;;;9.81;100.00
55070;BME280;40967;52.070;8.596;2023-02-17T08:20:01;100489.78;;;9.79;100.00
55070;BME280;40967;52.070;8.596;2023-02-17T08:22:26;100496.28;;;9.83;100.00
55070;BME280;40967;52.070;8.596;2023-02-17T08:24:52;100503.06;;;9.85;100.00
55070;BME280;40967;52.070;8.596;2023-02-17T08:27:18;100480.56;;;9.80;100.00
55070;BME280;40967;52.070;8.596;2023-02-17T08:29:44;100498.75;;;9.84;100.00
55070;BME280;40967;52.070;8.596;2023-02-17T08:32:10;100494.41;;;9.83;100.00
55070;BME280;40967;52.070;8.596;2023-02-17T08:34:36;100497.91;;;9.79;100.00
55070;BME280;40967;52.070;8.596;2023-02-17T08:37:03;100486.28;;;9.83;100.00
55070;BME280;40967;52.070;8.596;2023-02-17T08:39:30;100482.47;;;9.79;100.00
55070;BME280;40967;52.070;8.596;2023-02-17T08:41:56;100484.63;;;9.82;100.00
55070;BME280;40967;52.070;8.596;2023-02-17T08:44:21;100484.91;;;9.86;100.00
55070;BME280;40967;52.070;8.596;2023-02-17T08:46:48;100472.69;;;9.78;100.00
55070;BME280;40967;52.070;8.596;2023-02-17T08:49:16;100481.66;;;9.84;100.00
55070;BME280;40967;52.070;8.596;2023-02-17T08:51:42;100469.75;;;9.80;100.00
55070;BME280;40967;52.070;8.596;2023-02-17T08:54:08;100470.03;;;9.83;100.00
55070;BME280;40967;52.070;8.596;2023-02-17T08:56:37;100483.31;;;9.85;100.00
55070;BME280;40967;52.070;8.596;2023-02-17T08:59:06;100465.38;;;9.79;100.00
55070;BME280;40967;52.070;8.596;2023-02-17T09:01:31;100480.59;;;9.85;100.00
55070;BME280;40967;52.070;8.596;2023-02-17T09:04:00;100476.25;;;9.89;100.00
55070;BME280;40967;52.070;8.596;2023-02-17T09:06:32;100484.38;;;9.89;100.00
55070;BME280;40967;52.070;8.596;2023-02-17T09:08:58;100480.88;;;9.88;100.00
55070;BME280;40967;52.070;8.596;2023-02-17T09:11:24;100493.88;;;9.91;100.00
55070;BME280;40967;52.070;8.596;2023-02-17T09:13:50;100500.66;;;9.94;100.00
55070;BME280;40967;52.070;8.596;2023-02-17T09:16:15;100502.31;;;9.95;100.00
55070;BME280;40967;52.070;8.596;2023-02-17T09:18:43;100483.31;;;9.85;100.00
55070;BME280;40967;52.070;8.596;2023-02-17T09:21:11;100492.78;;;9.92;100.00
55070;BME280;40967;52.070;8.596;2023-02-17T09:23:38;100509.91;;;10.03;100.00
55070;BME280;40967;52.070;8.596;2023-02-17T09:26:07;100506.13;;;9.99;100.00
55070;BME280;40967;52.070;8.596;2023-02-17T09:28:33;100509.91;;;9.98;100.00
55070;BME280;40967;52.070;8.596;2023-02-17T09:31:17;100511.00;;;10.02;100.00
55070;BME280;40967;52.070;8.596;2023-02-17T09:33:44;100518.59;;;10.00;100.00
55070;BME280;40967;52.070;8.596;2023-02-17T09:36:14;100503.94;;;10.01;100.00
55070;BME280;40967;52.070;8.596;2023-02-17T09:38:40;100528.38;;;10.06;100.00
55070;BME280;40967;52.070;8.596;2023-02-17T09:44:12;100541.41;;;10.09;100.00
55070;BME280;40967;52.070;8.596;2023-02-17T09:46:46;100517.50;;;10.01;100.00
55070;BME280;40967;52.070;8.596;2023-02-17T09:49:17;100521.91;;;10.17;100.00
55070;BME280;40967;52.070;8.596;2023-02-17T09:51:53;100548.75;;;10.13;100.00
55070;BME280;40967;52.070;8.596;2023-02-17T09:54:27;100559.06;;;10.16;100.00
55070;BME280;40967;52.070;8.596;2023-02-17T09:56:57;100518.38;;;10.16;100.00
55070;BME280;40967;52.070;8.596;2023-02-17T09:59:31;100526.28;;;10.18;100.00
55070;BME280;40967;52.070;8.596;2023-02-17T10:02:00;100521.38;;;10.15;100.00
55070;BME280;40967;52.070;8.596;2023-02-17T10:04:37;100543.91;;;10.20;100.00
55070;BME280;40967;52.070;8.596;2023-02-17T10:07:45;100530.63;;;10.24;100.00
55070;BME280;40967;52.070;8.596;2023-02-17T10:10:22;100525.75;;;10.21;100.00
55070;BME280;40967;52.070;8.596;2023-02-17T10:12:53;100555.59;;;10.31;100.00
55070;BME280;40967;52.070;8.596;2023-02-17T10:15:23;100535.50;;;10.32;100.00
55070;BME280;40967;52.070;8.596;2023-02-17T10:20:46;100507.34;;;10.38;100.00
55070;BME280;40967;52.070;8.596;2023-02-17T10:23:24;100504.06;;;10.41;100.00
55070;BME280;40967;52.070;8.596;2023-02-17T10:34:01;100490.00;;;10.54;100.00
55070;BME280;40967;52.070;8.596;2023-02-17T10:39:15;100484.31;;;10.61;100.00
55070;BME280;40967;52.070;8.596;2023-02-17T10:41:49;100461.78;;;10.65;100.00
55070;BME280;40967;52.070;8.596;2023-02-17T10:44:19;100444.97;;;10.68;100.00
55070;BME280;40967;52.070;8.596;2023-02-17T10:46:46;100459.59;;;10.77;100.00
55070;BME280;40967;52.070;8.596;2023-02-17T10:49:26;100449.84;;;10.71;100.00
55070;BME280;40967;52.070;8.596;2023-02-17T10:51:54;100431.13;;;10.75;100.00
55070;BME280;40967;52.070;8.596;2023-02-17T10:54:36;100448.50;;;10.84;100.00
55070;BME280;40967;52.070;8.596;2023-02-17T10:57:04;100431.94;;;10.85;100.00
55070;BME280;40967;52.070;8.596;2023-02-17T10:59:40;100433.53;;;10.96;100.00
55070;BME280;40967;52.070;8.596;2023-02-17T11:02:35;100427.28;;;11.01;100.00
55070;BME280;40967;52.070;8.596;2023-02-17T11:05:02;100434.59;;;11.05;100.00
55070;BME280;40967;52.070;8.596;2023-02-17T11:07:36;100434.56;;;11.15;100.00
55070;BME280;40967;52.070;8.596;2023-02-17T11:10:26;100414.50;;;11.16;100.00
55070;BME280;40967;52.070;8.596;2023-02-17T11:12:53;100418.00;;;11.27;100.00
55070;BME280;40967;52.070;8.596;2023-02-17T11:15:28;100413.34;;;11.37;100.00
55070;BME280;40967;52.070;8.596;2023-02-17T11:17:55;100430.19;;;11.39;100.00
55070;BME280;40967;52.070;8.596;2023-02-17T11:25:33;100423.88;;;11.54;100.00
55070;BME280;40967;52.070;8.596;2023-02-17T11:28:10;100437.69;;;11.68;100.00
55070;BME280;40967;52.070;8.596;2023-02-17T11:30:38;100420.03;;;11.70;100.00
55070;BME280;40967;52.070;8.596;2023-02-17T11:33:14;100413.78;;;11.70;100.00
55070;BME280;40967;52.070;8.596;2023-02-17T11:38:19;100419.19;;;11.75;100.00
55070;BME280;40967;52.070;8.596;2023-02-17T11:40:58;100431.16;;;11.74;99.96
55070;BME280;40967;52.070;8.596;2023-02-17T11:43:24;100408.59;;;11.73;99.75
55070;BME280;40967;52.070;8.596;2023-02-17T11:56:21;100370.19;;;11.90;98.02
55070;BME280;40967;52.070;8.596;2023-02-17T11:59:17;100357.38;;;11.90;97.41
55070;BME280;40967;52.070;8.596;2023-02-17T12:17:24;100416.06;;;12.01;94.74
55070;BME280;40967;52.070;8.596;2023-02-17T12:25:26;100373.19;;;11.88;95.16
55070;BME280;40967;52.070;8.596;2023-02-17T12:35:54;100394.13;;;11.88;95.40
55070;BME280;40967;52.070;8.596;2023-02-17T12:38:26;100413.63;;;12.00;95.57
55070;BME280;40967;52.070;8.596;2023-02-17T12:41:04;100419.06;;;12.00;95.45
55070;BME280;40967;52.070;8.596;2023-02-17T12:43:43;100401.38;;;11.97;95.51
55070;BME280;40967;52.070;8.596;2023-02-17T12:46:14;100406.59;;;11.89;95.33
55070;BME280;40967;52.070;8.596;2023-02-17T12:49:02;100418.84;;;11.91;95.38
55070;BME280;40967;52.070;8.596;2023-02-17T12:51:34;100415.28;;;11.91;95.85
55070;BME280;40967;52.070;8.596;2023-02-17T12:59:30;100430.28;;;11.83;96.47
55070;BME280;40967;52.070;8.596;2023-02-17T13:04:32;100417.22;;;11.85;96.60
55070;BME280;40967;52.070;8.596;2023-02-17T13:07:05;100410.19;;;11.84;96.98
55070;BME280;40967;52.070;8.596;2023-02-17T13:09:41;100431.63;;;11.86;97.04
55070;BME280;40967;52.070;8.596;2023-02-17T13:15:01;100428.41;;;11.79;97.08
55070;BME280;40967;52.070;8.596;2023-02-17T13:17:37;100437.94;;;11.81;97.27
55070;BME280;40967;52.070;8.596;2023-02-17T13:22:37;100446.88;;;11.82;97.60
55070;BME280;40967;52.070;8.596;2023-02-17T13:25:04;100453.41;;;11.81;98.10
55070;BME280;40967;52.070;8.596;2023-02-17T13:27:36;100458.34;;;11.74;98.55
55070;BME280;40967;52.070;8.596;2023-02-17T13:32:37;100479.56;;;11.67;99.70
55070;BME280;40967;52.070;8.596;2023-02-17T13:42:57;100470.69;;;11.26;100.00
55070;BME280;40967;52.070;8.596;2023-02-17T13:45:44;100491.28;;;11.42;100.00
55070;BME280;40967;52.070;8.596;2023-02-17T13:50:48;100483.72;;;11.29;100.00
55070;BME280;40967;52.070;8.596;2023-02-17T13:53:22;100505.72;;;11.17;100.00
55070;BME280;40967;52.070;8.596;2023-02-17T13:55:48;100504.69;;;11.08;100.00
55070;BME280;40967;52.070;8.596;2023-02-17T13:58:30;100456.63;;;10.69;100.00
55070;BME280;40967;52.070;8.596;2023-02-17T14:00:58;100471.00;;;10.69;100.00
55070;BME280;40967;52.070;8.596;2023-02-17T14:03:42;100511.72;;;10.84;100.00
55070;BME280;40967;52.070;8.596;2023-02-17T14:06:29;100494.91;;;10.87;100.00
55070;BME280;40967;52.070;8.596;2023-02-17T14:08:56;100492.72;;;10.84;100.00
55070;BME280;40967;52.070;8.596;2023-02-17T14:11:24;100507.94;;;10.85;100.00
55070;BME280;40967;52.070;8.596;2023-02-17T14:13:53;100501.69;;;10.85;100.00
55070;BME280;40967;52.070;8.596;2023-02-17T14:16:32;100480.78;;;10.75;100.00
55070;BME280;40967;52.070;8.596;2023-02-17T14:19:17;100493.25;;;10.81;100.00
55070;BME280;40967;52.070;8.596;2023-02-17T14:21:57;100493.25;;;10.81;100.00
55070;BME280;40967;52.070;8.596;2023-02-17T14:24:34;100497.34;;;10.79;100.00
55070;BME280;40967;52.070;8.596;2023-02-17T14:35:38;100506.84;;;10.76;100.00
55070;BME280;40967;52.070;8.596;2023-02-17T14:38:26;100516.06;;;10.75;100.00
55070;BME280;40967;52.070;8.596;2023-02-17T14:40:55;100502.50;;;10.70;100.00
55070;BME280;40967;52.070;8.596;2023-02-17T14:43:21;100499.25;;;10.68;100.00
55070;BME280;40967;52.070;8.596;2023-02-17T14:45:48;100518.78;;;10.70;100.00
55070;BME280;40967;52.070;8.596;2023-02-17T14:48:15;100525.84;;;10.71;100.00
55070;BME280;40967;52.070;8.596;2023-02-17T14:50:42;100525.28;;;10.64;100.00
55070;BME280;40967;52.070;8.596;2023-02-17T14:53:31;100519.84;;;10.64;100.00
55070;BME280;40967;52.070;8.596;2023-02-17T14:56:07;100527.44;;;10.62;100.00
55070;BME280;40967;52.070;8.596;2023-02-17T14:58:34;100534.53;;;10.63;100.00
55070;BME280;40967;52.070;8.596;2023-02-17T15:01:08;100531.53;;;10.65;100.00
55070;BME280;40967;52.070;8.596;2023-02-17T15:03:34;100533.97;;;10.66;100.00
55070;BME280;40967;52.070;8.596;2023-02-17T15:06:10;100508.44;;;10.52;100.00
55070;BME280;40967;52.070;8.596;2023-02-17T15:08:37;100506.28;;;10.49;100.00
55070;BME280;40967;52.070;8.596;2023-02-17T15:11:02;100522.56;;;10.59;100.00